Chancellor, South Dakota
Current Conditions -  °F | °C
As of 5:56 AM on Thursday 27 Nov 2014 (Local Time) from KFSD Reporting Station
Clear Clear  
Wind Chill: -4°   Ceiling: Unl
Heat Index: -4°   Visibility: 10mi
Dew Point: -9°   Wind: 3mph
Humidity: 79%   Direction: 10°N
Pressure: 30.48"   Gusts: NA
Location:  43.37°N, 96.99°W
Report Text: KFSD 271156Z 01003KT 10SM CLR M20/M23 A3048 RMK AO2 SLP360 4/001 T12001228 11161 21211 58001
Loading
Personal Weather Stations






























Interactive Weather Map New forecast layout! Learn more

10-Day Weather Forecast

Advertisements
Track Severe Weather on mobile